Sikuliaq — WDG7520 — position and weather

sailwx.info

Track history (hours):
 
Tides and Currents Weather Stations Pressure Air Temp Water Temp Dewpoint Dewpoint Depression Visibility Wind Speed Wind Dir Waves Ship Positions

Oceanographic research ship Sikuliaq (USA)

Owner: Mackay Communications, Raleigh, NC. More information available from US FCC via Universal Licensing System.

Last reported at 2020-Mar-21 16:14 UTC. Time now 2020-Mar-29 15:37 UTC.
Position N 48°32' W 125°43'.

Length 80 m; draft 6 m.

Type: Other ship. MMSI: 338417000.

Date/timePositionNaut miles runAvg speedWind from/ knotsBaromVisibWave heightAir tempDewpointWater temp
2020-Mar-21 16:14N 48°32' W 125°43'3310.7
2020-Mar-21 13:08N 48°31' W 124°53'1810.9
2020-Mar-21 11:30N 48°27' W 124°27'84 9.6
2020-Mar-21 02:46N 47°56' W 122°30'311.0
2020-Mar-21 02:29N 47°53' W 122°28'511.0
2020-Mar-21 02:00N 47°48' W 122°26'510.7
2020-Mar-21 01:30N 47°43' W 122°26'510.1
2020-Mar-21 00:58N 47°37' W 122°25'4 3.9
2020-Mar-21 00:00N 47°35' W 122°22'3 0.1
2020-Mar-18 23:00N 47°36' W 122°18'0 0.0 260 / 11011.7 13.4 0.5
2020-Mar-18 22:00N 47°36' W 122°18'0 0.0 300 / 41011.8 11.9 0.5
2020-Mar-18 21:00N 47°36' W 122°18'0 0.0 220 / 1
2020-Mar-18 20:00N 47°36' W 122°18'0 0.0 240 / 31012.9 9.9 3.3
2020-Mar-18 19:00N 47°36' W 122°18'0 0.0 190 / 61013.1 8.6 3.4
2020-Mar-18 18:00N 47°36' W 122°18'0 0.0 240 / 41013.3 7.2 3.2
2020-Mar-18 17:00N 47°36' W 122°18'0 0.0 160 / 21013.0 6.4 2.7
2020-Mar-18 16:00N 47°36' W 122°18'0 0.0 140 / 41012.8 4.1 1.7
2020-Mar-18 15:00N 47°36' W 122°18'0 0.0 150 / 31012.4 2.6 1.1
2020-Mar-18 14:00N 47°36' W 122°18'0 0.0 160 / 31011.8 2.3 0.9
2020-Mar-18 13:00N 47°36' W 122°18'0 0.0 140 / 41011.3 2.9 1.2
2020-Mar-18 12:00N 47°36' W 122°18'0 0.0 150 / 31010.9 3.1 1.1
2020-Mar-18 11:00N 47°36' W 122°18'0 0.0 140 / 41010.8 3.7 1.5
2020-Mar-18 10:00N 47°36' W 122°18'0 0.0 130 / 21010.4 4.1 1.7
2020-Mar-18 09:00N 47°36' W 122°18'0 0.0 160 / 11009.9 4.7 1.7
2020-Mar-18 08:00N 47°36' W 122°18'0 0.0 010 / 11010.1 5.0 2.4
2020-Mar-18 07:00N 47°36' W 122°18'0 0.0 300 / 11010.0 4.4 1.8
2020-Mar-18 06:00N 47°36' W 122°18'0 0.0 150 / 11009.7 5.9 2.4
2020-Mar-18 05:00N 47°36' W 122°18'0 0.0 320 / 11009.9 7.0 2.1
2020-Mar-18 04:00N 47°36' W 122°18'0 0.0 310 / 11009.3 7.7 2.7
2020-Mar-18 03:00N 47°36' W 122°18'0 0.0 290 / 11008.8 7.9 1.9
2020-Mar-18 02:00N 47°36' W 122°18'0 0.0 280 / 21008.1 9.1 1.6
2020-Mar-18 01:00N 47°36' W 122°18'0 0.0 330 / 31008.4 11.0-0.6
2020-Mar-18 00:00N 47°36' W 122°18'0 0.0 310 / 61008.9 10.5-0.0
2020-Mar-17 23:00N 47°36' W 122°18'0 0.0 310 / 51009.2 10.0 0.5
2020-Mar-17 22:00N 47°36' W 122°18'0 0.0 320 / 41009.4 9.9 1.1
2020-Mar-17 21:00N 47°36' W 122°18'0 0.0 330 / 41009.9 9.6 0.7
2020-Mar-17 20:00N 47°36' W 122°18'0 0.0 310 / 41010.7 8.8-0.6
2020-Mar-17 19:00N 47°36' W 122°18'0 0.0 330 / 31011.1 8.0-0.0
2020-Mar-17 18:00N 47°36' W 122°18'0 0.0 290 / 21011.8 7.1-0.9
2020-Mar-17 17:00N 47°36' W 122°18'0 0.0 120 / 41012.2 5.3-0.7
2020-Mar-17 16:00N 47°36' W 122°18'0 0.0 170 / 21012.7 3.1-0.3
2020-Mar-17 15:00N 47°36' W 122°18'0 0.0 180 / 11012.6 1.8-0.4
2020-Mar-17 14:00N 47°36' W 122°18'0 0.0 190 / 31013.0 1.4-0.9
2020-Mar-17 13:00N 47°36' W 122°18'0 0.0 160 / 31013.3 1.8-0.9
2020-Mar-17 12:00N 47°36' W 122°18'0 0.0 170 / 31013.4 2.2-0.4
2020-Mar-17 11:00N 47°36' W 122°18'0 0.0 130 / 11013.7 2.4-0.7
2020-Mar-17 10:00N 47°36' W 122°18'0 0.0 150 / 11014.5 3.4-0.8
2020-Mar-17 09:00N 47°36' W 122°18'0 0.0 200 / 11014.7 4.2-1.0
2020-Mar-17 08:00N 47°36' W 122°18'0 0.0 320 / 11015.4 5.8-1.8
2020-Mar-17 07:00N 47°36' W 122°18'0 0.0 320 / 11016.3 7.1-2.5
2020-Mar-17 06:00N 47°36' W 122°18'0 0.0 080 1017.0 6.5-1.4
2020-Mar-17 05:00N 47°36' W 122°18'0 0.0 280 1017.6 7.6-2.8
2020-Mar-17 04:00N 47°36' W 122°18'0 0.0 180 / 11018.2 9.0-4.1
2020-Mar-17 03:00N 47°36' W 122°18'0 0.0 320 / 21018.5 8.9-1.0
2020-Mar-17 02:00N 47°36' W 122°18'0 0.0 020 / 21018.7 9.3-0.9
2020-Mar-17 01:00N 47°36' W 122°18'0 0.0 1018.8 10.8-1.2
2020-Mar-17 00:00N 47°36' W 122°18'0 0.0 290 / 31019.3 11.1-0.7
2020-Mar-16 23:00N 47°36' W 122°18'0 0.0 330 / 31019.8 10.8-2.0
2020-Mar-16 22:00N 47°36' W 122°18'0 0.0 340 / 51020.6 10.2-3.1
2020-Mar-16 21:00N 47°36' W 122°18'0 0.0 350 / 51021.2 10.1-3.4
2020-Mar-16 20:00N 47°36' W 122°18'0 0.0 320 / 51022.2 9.4-3.7
2020-Mar-16 19:00N 47°36' W 122°18'0 0.0 350 / 41022.8 9.7-4.6
2020-Mar-16 18:00N 47°36' W 122°18'0 0.0 320 / 41023.3 8.5-6.8
2020-Mar-16 17:00N 47°36' W 122°18'0 0.0 100 / 21023.5 7.8-4.8
2020-Mar-16 16:00N 47°36' W 122°18'0 0.0 280 / 21023.5 5.3-3.9
2020-Mar-16 15:00N 47°36' W 122°18'0 0.0 280 / 21023.6 2.8-2.9
2020-Mar-16 14:00N 47°36' W 122°18'0 0.0 020 / 21023.2 2.8-4.3
2020-Mar-16 13:00N 47°36' W 122°18'0 0.0 030 / 11023.2 3.0-1.9
2020-Mar-16 12:00N 47°36' W 122°18'0 0.0 300 / 11022.9 3.4-2.8
2020-Mar-16 11:00N 47°36' W 122°18'0 0.0 280 / 11022.6 3.7-2.3
2020-Mar-16 10:00N 47°36' W 122°18'0 0.0 080 / 21022.5 3.9-2.4
2020-Mar-16 09:00N 47°36' W 122°18'0 0.0 040 / 21021.7 4.3-1.9
2020-Mar-16 08:00N 47°36' W 122°18'0 0.0 100 / 11022.0 4.5-2.4
2020-Mar-16 07:00N 47°36' W 122°18'0 0.0 060 / 41022.0 5.1-3.0
2020-Mar-16 06:00N 47°36' W 122°18'0 0.0 340 / 21021.6 5.1-3.3
2020-Mar-16 05:00N 47°36' W 122°18'0 0.0 070 / 31021.4 5.7-3.6
2020-Mar-16 04:00N 47°36' W 122°18'0 0.0 020 / 21020.7 5.4-2.9
2020-Mar-16 03:00N 47°36' W 122°18'0 0.0 170 / 31020.5 5.8-2.7
2020-Mar-16 02:00N 47°36' W 122°18'0 0.0 110 / 31020.3 6.3-3.1
2020-Mar-16 01:00N 47°36' W 122°18'0 0.0 250 / 41019.7 7.1-4.9
2020-Mar-16 00:00N 47°36' W 122°18'0 0.0 220 / 31019.8 7.7-6.5
2020-Mar-15 23:00N 47°36' W 122°18'0 0.0 280 / 41020.3 7.4-7.1
2020-Mar-15 22:00N 47°36' W 122°18'0 0.0 090 / 31020.6 6.4-7.2
2020-Mar-15 21:00N 47°36' W 122°18'0 0.0 140 / 41020.8 5.7-7.3
2020-Mar-15 20:00N 47°36' W 122°18'0 0.0 310 / 51020.8 5.3-7.0
2020-Mar-15 19:00N 47°36' W 122°18'0 0.0 030 / 41021.0 4.7-7.0
2020-Mar-15 18:00N 47°36' W 122°18'0 0.0 030 / 31021.2 4.6-8.2
2020-Mar-15 17:00N 47°36' W 122°18'0 0.0 050 / 41020.8 3.3-9.4
2020-Mar-15 16:00N 47°36' W 122°18'0 0.0 090 / 31020.4 2.6-8.1
2020-Mar-15 15:00N 47°36' W 122°18'0 0.0 1020.2 1.7-8.0
2020-Mar-15 14:00N 47°36' W 122°18'0 0.0 010 / 51019.9 1.6-7.3
2020-Mar-15 13:00N 47°36' W 122°18'0 0.0 220 / 31019.9 1.8-7.3
2020-Mar-15 12:00N 47°36' W 122°18'0 0.0 010 / 41019.6 2.1-7.0
2020-Mar-15 11:00N 47°36' W 122°18'0 0.0 150 / 31020.1 2.3-6.5
2020-Mar-15 10:00N 47°36' W 122°18'0 0.0 020 / 21020.4 2.3-5.6
2020-Mar-15 09:00N 47°36' W 122°18'0 0.0 180 / 31020.1 2.7-5.4
2020-Mar-15 08:00N 47°36' W 122°18'0 0.0 030 / 21020.0 2.8-5.7
2020-Mar-15 07:00N 47°36' W 122°18'0 0.0 040 / 41019.7 3.1-5.9
2020-Mar-15 06:00N 47°36' W 122°18'0 0.0 010 / 31019.4 3.1-4.8
2020-Mar-15 05:00N 47°36' W 122°18'0 0.0 060 / 21019.0 3.4-5.1
2020-Mar-15 04:00N 47°36' W 122°18'0 0.0 110 / 31018.4 3.3-5.1
2020-Mar-15 03:00N 47°36' W 122°18'0 0.0 020 / 51017.9 3.6-5.5
2020-Mar-15 02:00N 47°36' W 122°18'0 0.0 230 / 21017.3 3.9-5.6
2020-Mar-15 01:00N 47°36' W 122°18'0 0.0 250 / 31016.5 4.4-5.2
2020-Mar-15 00:00N 47°36' W 122°18'0 0.0 300 / 51015.7 4.6-5.4
2020-Mar-14 23:00N 47°36' W 122°18'0 0.0 090 / 31015.2 5.3-5.2
2020-Mar-14 22:00N 47°36' W 122°18'0 0.0 230 / 31014.7 5.3-4.9
2020-Mar-14 21:00N 47°36' W 122°18'0 0.0 170 / 21014.4 5.6-5.0
2020-Mar-14 20:00N 47°36' W 122°18'0 0.0 110 / 31014.1 5.3-6.5
2020-Mar-14 19:00N 47°36' W 122°18'0 0.0 080 / 31013.4 4.8-6.1
2020-Mar-14 18:00N 47°36' W 122°18'0 0.0 030 / 31012.4 3.6-6.2
2020-Mar-14 17:00N 47°36' W 122°18'0 0.0 010 / 31011.3 3.1-4.9
2020-Mar-14 16:00N 47°36' W 122°18'0 0.0 290 / 41010.2 3.0-4.5
2020-Mar-14 15:00N 47°36' W 122°18'0 0.0 040 / 41008.7 3.1-4.1
2020-Mar-14 14:00N 47°36' W 122°18'0 0.0 020 / 41007.4 2.8-4.0
2020-Mar-14 13:00N 47°36' W 122°18'0 0.0 180 / 31006.6 3.2-3.3
2020-Mar-14 12:00N 47°36' W 122°18'0 0.0 060 / 41005.9 3.2-3.1
2020-Mar-14 11:00N 47°36' W 122°18'0 0.0 120 / 31005.3 3.3-3.0
2020-Mar-14 10:00N 47°36' W 122°18'0 0.0 130 / 31004.9 3.4-2.7
2020-Mar-14 09:00N 47°36' W 122°18'0 0.0 200 / 41004.5 3.5-2.0
2020-Mar-14 08:00N 47°36' W 122°18'0 0.0 210 / 21004.3 3.6-0.6
2020-Mar-14 07:00N 47°36' W 122°18'0 0.0 070 / 31004.3 3.5 0.4
2020-Mar-14 06:00N 47°36' W 122°18'0 0.0 150 / 31004.0 3.4 0.7
2020-Mar-14 05:00N 47°36' W 122°18'0 0.0 200 / 31003.8 3.5 1.1
2020-Mar-14 04:00N 47°36' W 122°18'0 0.0 070 / 31003.9 3.4 1.4
2020-Mar-14 03:00N 47°36' W 122°18'0 0.0 030 / 41003.9 3.3 1.6
2020-Mar-14 02:00N 47°36' W 122°18'0 0.0 010 / 41003.9 3.3 1.4
2020-Mar-14 01:00N 47°36' W 122°18'0 0.0 1004.5 3.5 1.6
2020-Mar-14 00:00N 47°36' W 122°18'0 0.0 190 / 21004.9 3.6 2.1
2020-Mar-13 23:00N 47°36' W 122°18'0 0.0 250 / 41005.2 3.9 2.2
2020-Mar-13 22:00N 47°36' W 122°18'0 0.0 290 / 31005.5 3.8 2.4
2020-Mar-13 21:00N 47°36' W 122°18'0 0.0 330 / 31006.3 4.1 2.7
2020-Mar-13 20:00N 47°36' W 122°18'0 0.0 290 / 31007.0 4.0 2.7
2020-Mar-13 19:00N 47°36' W 122°18'0 0.0 040 / 41007.8 4.2 2.7
2020-Mar-13 18:00N 47°36' W 122°18'0 0.0 050 / 21008.6 3.9 2.2
2020-Mar-13 17:00N 47°36' W 122°18'0 0.0 040 / 21009.7 3.3 1.8
2020-Mar-13 16:00N 47°36' W 122°18'0 0.0 070 / 31010.7 3.1 1.7
2020-Mar-13 15:00N 47°36' W 122°18'0 0.0 040 / 31011.8 3.2 1.6
2020-Mar-13 14:00N 47°36' W 122°18'0 0.0 060 / 11012.6 4.0 1.2
2020-Mar-13 13:00N 47°36' W 122°18'0 0.0 150 / 11013.4 4.2 0.9
2020-Mar-13 12:00N 47°36' W 122°18'0 0.0 130 / 41014.2 4.4 0.7
2020-Mar-13 11:00N 47°36' W 122°18'0 0.0 120 / 31015.6 4.8 0.7
2020-Mar-13 10:00N 47°36' W 122°18'0 0.0 130 / 41017.1 5.4 0.5
2020-Mar-13 09:00N 47°36' W 122°18'0 0.0 320 / 11018.0 6.9-0.6
2020-Mar-13 08:00N 47°36' W 122°18'0 0.0 340 / 11018.8 6.9-0.5
2020-Mar-13 07:00N 47°36' W 122°18'0 0.0 290 / 11019.7 6.7-0.9
2020-Mar-13 06:00N 47°36' W 122°18'0 0.0 050 / 31020.3 7.1-1.5
2020-Mar-13 05:00N 47°36' W 122°18'0 0.0 340 / 11020.9 7.1-0.8
2020-Mar-13 04:00N 47°36' W 122°18'0 0.0 010 / 21021.5 7.3 0.9
2020-Mar-13 03:00N 47°36' W 122°18'0 0.0 080 / 11021.8 7.3 1.8
2020-Mar-13 02:00N 47°36' W 122°18'0 0.0 350 / 21022.4 8.0 1.0
2020-Mar-13 01:00N 47°36' W 122°18'0 0.0 340 / 21023.1 9.5 0.6
2020-Mar-13 00:00N 47°36' W 122°18'0 0.0 340 / 31024.0 9.2-0.3
2020-Mar-12 23:00N 47°36' W 122°18'0 0.0 290 / 31025.0 8.8 0.7
2020-Mar-12 22:00N 47°36' W 122°18'0 0.0 290 / 21026.0 8.5 0.6
2020-Mar-12 21:00N 47°36' W 122°18'0 0.0 290 / 31027.1 8.3 2.1
2020-Mar-12 20:00N 47°36' W 122°18'0 0.0 290 / 21027.9 7.2 3.0
2020-Mar-12 19:00N 47°36' W 122°18'0 0.0 300 / 31028.1 7.7 2.4
2020-Mar-12 18:00N 47°36' W 122°18'0 0.0 140 / 11028.5 7.4 1.6
2020-Mar-12 17:00N 47°36' W 122°18'0 0.0 180 / 21028.5 5.2 3.5
2020-Mar-12 16:00N 47°36' W 122°18'0 0.0 090 / 21028.4 5.5 2.9
2020-Mar-12 15:00N 47°36' W 122°18'0 0.0 130 / 21028.3 5.4 2.5
2020-Mar-12 14:00N 47°36' W 122°18'0 0.0 230 / 21028.0 5.3 2.1
2020-Mar-12 13:00N 47°36' W 122°18'0 0.0 160 / 21028.0 5.4 2.2
2020-Mar-12 12:00N 47°36' W 122°18'0 0.0 250 1028.1 5.2 1.9
2020-Mar-12 11:00N 47°36' W 122°18'0 0.0 130 / 11027.9 5.7 1.9
2020-Mar-12 10:00N 47°36' W 122°18'0 0.0 220 / 11027.9 5.7 2.1
2020-Mar-12 09:00N 47°36' W 122°18'0 0.0 270 / 11027.9 5.7 2.5
2020-Mar-12 08:00N 47°36' W 122°18'0 0.0 340 / 21027.6 5.9 2.6
2020-Mar-12 07:00N 47°36' W 122°18'0 0.0 130 / 11027.2 6.4 1.9
2020-Mar-12 06:00N 47°36' W 122°18'0 0.0 050 / 21026.7 7.5 1.2
2020-Mar-12 05:00N 47°36' W 122°18'0 0.0 320 / 21026.4 8.0 1.0
2020-Mar-12 04:00N 47°36' W 122°18'0 0.0 020 / 21025.7 8.1 1.3
2020-Mar-12 03:00N 47°36' W 122°18'0 0.0 360 / 11025.0 9.2-1.2
2020-Mar-12 02:00N 47°36' W 122°18'0 0.0 320 / 21024.6 9.2 0.3
2020-Mar-12 01:00N 47°36' W 122°18'0 0.0 310 / 61024.6 9.4-1.6
2020-Mar-12 00:00N 47°36' W 122°18'0 0.0 290 / 41024.6 9.3-1.3
2020-Mar-11 23:00N 47°36' W 122°18'0 0.0 320 / 31024.3 10.2-1.0
2020-Mar-11 22:00N 47°36' W 122°18'0 0.0 290 / 31024.2 9.4-1.8
2020-Mar-11 21:00N 47°36' W 122°18'0 0.0 270 / 41024.2 8.1-1.7
2020-Mar-11 20:00N 47°36' W 122°18'0 0.0 250 / 31024.2 6.8 2.4
2020-Mar-11 19:00N 47°36' W 122°18'0 0.0 160 / 31023.8 9.0 1.2
2020-Mar-11 18:00N 47°36' W 122°18'0 0.0 160 / 21023.0 9.3 0.7
2020-Mar-11 17:00N 47°36' W 122°18'   080 / 21022.3 8.5 3.1
Track history (hours):
 
Tides and Currents Weather Stations Pressure Air Temp Water Temp Dewpoint Dewpoint Depression Visibility Wind Speed Wind Dir Waves Ship Positions

Oceanographic research ship Sikuliaq (USA)

Owner: Mackay Communications, Raleigh, NC. More information available from US FCC via Universal Licensing System.

Last reported at 2020-Mar-21 16:14 UTC. Time now 2020-Mar-29 15:37 UTC.
Position N 48°32' W 125°43'.

Length 80 m; draft 6 m.

Type: Other ship. MMSI: 338417000.

Date/timePositionNaut miles runAvg speedWind from/ knotsBaromVisibWave heightAir tempDewpointWater temp
2020-Mar-21 16:14N 48°32' W 125°43'3310.7
2020-Mar-21 13:08N 48°31' W 124°53'1810.9
2020-Mar-21 11:30N 48°27' W 124°27'84 9.6
2020-Mar-21 02:46N 47°56' W 122°30'311.0
2020-Mar-21 02:29N 47°53' W 122°28'511.0
2020-Mar-21 02:00N 47°48' W 122°26'510.7
2020-Mar-21 01:30N 47°43' W 122°26'510.1
2020-Mar-21 00:58N 47°37' W 122°25'4 3.9
2020-Mar-21 00:00N 47°35' W 122°22'3 0.1
2020-Mar-18 23:00N 47°36' W 122°18'0 0.0 260 / 11011.7 13.4 0.5
2020-Mar-18 22:00N 47°36' W 122°18'0 0.0 300 / 41011.8 11.9 0.5
2020-Mar-18 21:00N 47°36' W 122°18'0 0.0 220 / 1
2020-Mar-18 20:00N 47°36' W 122°18'0 0.0 240 / 31012.9 9.9 3.3
2020-Mar-18 19:00N 47°36' W 122°18'0 0.0 190 / 61013.1 8.6 3.4
2020-Mar-18 18:00N 47°36' W 122°18'0 0.0 240 / 41013.3 7.2 3.2
2020-Mar-18 17:00N 47°36' W 122°18'0 0.0 160 / 21013.0 6.4 2.7
2020-Mar-18 16:00N 47°36' W 122°18'0 0.0 140 / 41012.8 4.1 1.7
2020-Mar-18 15:00N 47°36' W 122°18'0 0.0 150 / 31012.4 2.6 1.1
2020-Mar-18 14:00N 47°36' W 122°18'0 0.0 160 / 31011.8 2.3 0.9
2020-Mar-18 13:00N 47°36' W 122°18'0 0.0 140 / 41011.3 2.9 1.2
2020-Mar-18 12:00N 47°36' W 122°18'0 0.0 150 / 31010.9 3.1 1.1
2020-Mar-18 11:00N 47°36' W 122°18'0 0.0 140 / 41010.8 3.7 1.5
2020-Mar-18 10:00N 47°36' W 122°18'0 0.0 130 / 21010.4 4.1 1.7
2020-Mar-18 09:00N 47°36' W 122°18'0 0.0 160 / 11009.9 4.7 1.7
2020-Mar-18 08:00N 47°36' W 122°18'0 0.0 010 / 11010.1 5.0 2.4
2020-Mar-18 07:00N 47°36' W 122°18'0 0.0 300 / 11010.0 4.4 1.8
2020-Mar-18 06:00N 47°36' W 122°18'0 0.0 150 / 11009.7 5.9 2.4
2020-Mar-18 05:00N 47°36' W 122°18'0 0.0 320 / 11009.9 7.0 2.1
2020-Mar-18 04:00N 47°36' W 122°18'0 0.0 310 / 11009.3 7.7 2.7
2020-Mar-18 03:00N 47°36' W 122°18'0 0.0 290 / 11008.8 7.9 1.9
2020-Mar-18 02:00N 47°36' W 122°18'0 0.0 280 / 21008.1 9.1 1.6
2020-Mar-18 01:00N 47°36' W 122°18'0 0.0 330 / 31008.4 11.0-0.6
2020-Mar-18 00:00N 47°36' W 122°18'0 0.0 310 / 61008.9 10.5-0.0
2020-Mar-17 23:00N 47°36' W 122°18'0 0.0 310 / 51009.2 10.0 0.5
2020-Mar-17 22:00N 47°36' W 122°18'0 0.0 320 / 41009.4 9.9 1.1
2020-Mar-17 21:00N 47°36' W 122°18'0 0.0 330 / 41009.9 9.6 0.7
2020-Mar-17 20:00N 47°36' W 122°18'0 0.0 310 / 41010.7 8.8-0.6
2020-Mar-17 19:00N 47°36' W 122°18'0 0.0 330 / 31011.1 8.0-0.0
2020-Mar-17 18:00N 47°36' W 122°18'0 0.0 290 / 21011.8 7.1-0.9
2020-Mar-17 17:00N 47°36' W 122°18'0 0.0 120 / 41012.2 5.3-0.7
2020-Mar-17 16:00N 47°36' W 122°18'0 0.0 170 / 21012.7 3.1-0.3
2020-Mar-17 15:00N 47°36' W 122°18'0 0.0 180 / 11012.6 1.8-0.4
2020-Mar-17 14:00N 47°36' W 122°18'0 0.0 190 / 31013.0 1.4-0.9
2020-Mar-17 13:00N 47°36' W 122°18'0 0.0 160 / 31013.3 1.8-0.9
2020-Mar-17 12:00N 47°36' W 122°18'0 0.0 170 / 31013.4 2.2-0.4
2020-Mar-17 11:00N 47°36' W 122°18'0 0.0 130 / 11013.7 2.4-0.7
2020-Mar-17 10:00N 47°36' W 122°18'0 0.0 150 / 11014.5 3.4-0.8
2020-Mar-17 09:00N 47°36' W 122°18'0 0.0 200 / 11014.7 4.2-1.0
2020-Mar-17 08:00N 47°36' W 122°18'0 0.0 320 / 11015.4 5.8-1.8
2020-Mar-17 07:00N 47°36' W 122°18'0 0.0 320 / 11016.3 7.1-2.5
2020-Mar-17 06:00N 47°36' W 122°18'0 0.0 080 1017.0 6.5-1.4
2020-Mar-17 05:00N 47°36' W 122°18'0 0.0 280 1017.6 7.6-2.8
2020-Mar-17 04:00N 47°36' W 122°18'0 0.0 180 / 11018.2 9.0-4.1
2020-Mar-17 03:00N 47°36' W 122°18'0 0.0 320 / 21018.5 8.9-1.0
2020-Mar-17 02:00N 47°36' W 122°18'0 0.0 020 / 21018.7 9.3-0.9
2020-Mar-17 01:00N 47°36' W 122°18'0 0.0 1018.8 10.8-1.2
2020-Mar-17 00:00N 47°36' W 122°18'0 0.0 290 / 31019.3 11.1-0.7
2020-Mar-16 23:00N 47°36' W 122°18'0 0.0 330 / 31019.8 10.8-2.0
2020-Mar-16 22:00N 47°36' W 122°18'0 0.0 340 / 51020.6 10.2-3.1
2020-Mar-16 21:00N 47°36' W 122°18'0 0.0 350 / 51021.2 10.1-3.4
2020-Mar-16 20:00N 47°36' W 122°18'0 0.0 320 / 51022.2 9.4-3.7
2020-Mar-16 19:00N 47°36' W 122°18'0 0.0 350 / 41022.8 9.7-4.6
2020-Mar-16 18:00N 47°36' W 122°18'0 0.0 320 / 41023.3 8.5-6.8
2020-Mar-16 17:00N 47°36' W 122°18'0 0.0 100 / 21023.5 7.8-4.8
2020-Mar-16 16:00N 47°36' W 122°18'0 0.0 280 / 21023.5 5.3-3.9
2020-Mar-16 15:00N 47°36' W 122°18'0 0.0 280 / 21023.6 2.8-2.9
2020-Mar-16 14:00N 47°36' W 122°18'0 0.0 020 / 21023.2 2.8-4.3
2020-Mar-16 13:00N 47°36' W 122°18'0 0.0 030 / 11023.2 3.0-1.9
2020-Mar-16 12:00N 47°36' W 122°18'0 0.0 300 / 11022.9 3.4-2.8
2020-Mar-16 11:00N 47°36' W 122°18'0 0.0 280 / 11022.6 3.7-2.3
2020-Mar-16 10:00N 47°36' W 122°18'0 0.0 080 / 21022.5 3.9-2.4
2020-Mar-16 09:00N 47°36' W 122°18'0 0.0 040 / 21021.7 4.3-1.9
2020-Mar-16 08:00N 47°36' W 122°18'0 0.0 100 / 11022.0 4.5-2.4
2020-Mar-16 07:00N 47°36' W 122°18'0 0.0 060 / 41022.0 5.1-3.0
2020-Mar-16 06:00N 47°36' W 122°18'0 0.0 340 / 21021.6 5.1-3.3
2020-Mar-16 05:00N 47°36' W 122°18'0 0.0 070 / 31021.4 5.7-3.6
2020-Mar-16 04:00N 47°36' W 122°18'0 0.0 020 / 21020.7 5.4-2.9
2020-Mar-16 03:00N 47°36' W 122°18'0 0.0 170 / 31020.5 5.8-2.7
2020-Mar-16 02:00N 47°36' W 122°18'0 0.0 110 / 31020.3 6.3-3.1
2020-Mar-16 01:00N 47°36' W 122°18'0 0.0 250 / 41019.7 7.1-4.9
2020-Mar-16 00:00N 47°36' W 122°18'0 0.0 220 / 31019.8 7.7-6.5
2020-Mar-15 23:00N 47°36' W 122°18'0 0.0 280 / 41020.3 7.4-7.1
2020-Mar-15 22:00N 47°36' W 122°18'0 0.0 090 / 31020.6 6.4-7.2
2020-Mar-15 21:00N 47°36' W 122°18'0 0.0 140 / 41020.8 5.7-7.3
2020-Mar-15 20:00N 47°36' W 122°18'0 0.0 310 / 51020.8 5.3-7.0
2020-Mar-15 19:00N 47°36' W 122°18'0 0.0 030 / 41021.0 4.7-7.0
2020-Mar-15 18:00N 47°36' W 122°18'0 0.0 030 / 31021.2 4.6-8.2
2020-Mar-15 17:00N 47°36' W 122°18'0 0.0 050 / 41020.8 3.3-9.4
2020-Mar-15 16:00N 47°36' W 122°18'0 0.0 090 / 31020.4 2.6-8.1
2020-Mar-15 15:00N 47°36' W 122°18'0 0.0 1020.2 1.7-8.0
2020-Mar-15 14:00N 47°36' W 122°18'0 0.0 010 / 51019.9 1.6-7.3
2020-Mar-15 13:00N 47°36' W 122°18'0 0.0 220 / 31019.9 1.8-7.3
2020-Mar-15 12:00N 47°36' W 122°18'0 0.0 010 / 41019.6 2.1-7.0
2020-Mar-15 11:00N 47°36' W 122°18'0 0.0 150 / 31020.1 2.3-6.5
2020-Mar-15 10:00N 47°36' W 122°18'0 0.0 020 / 21020.4 2.3-5.6
2020-Mar-15 09:00N 47°36' W 122°18'0 0.0 180 / 31020.1 2.7-5.4
2020-Mar-15 08:00N 47°36' W 122°18'0 0.0 030 / 21020.0 2.8-5.7
2020-Mar-15 07:00N 47°36' W 122°18'0 0.0 040 / 41019.7 3.1-5.9
2020-Mar-15 06:00N 47°36' W 122°18'0 0.0 010 / 31019.4 3.1-4.8
2020-Mar-15 05:00N 47°36' W 122°18'0 0.0 060 / 21019.0 3.4-5.1
2020-Mar-15 04:00N 47°36' W 122°18'0 0.0 110 / 31018.4 3.3-5.1
2020-Mar-15 03:00N 47°36' W 122°18'0 0.0 020 / 51017.9 3.6-5.5
2020-Mar-15 02:00N 47°36' W 122°18'0 0.0 230 / 21017.3 3.9-5.6
2020-Mar-15 01:00N 47°36' W 122°18'0 0.0 250 / 31016.5 4.4-5.2
2020-Mar-15 00:00N 47°36' W 122°18'0 0.0 300 / 51015.7 4.6-5.4
2020-Mar-14 23:00N 47°36' W 122°18'0 0.0 090 / 31015.2 5.3-5.2
2020-Mar-14 22:00N 47°36' W 122°18'0 0.0 230 / 31014.7 5.3-4.9
2020-Mar-14 21:00N 47°36' W 122°18'0 0.0 170 / 21014.4 5.6-5.0
2020-Mar-14 20:00N 47°36' W 122°18'0 0.0 110 / 31014.1 5.3-6.5
2020-Mar-14 19:00N 47°36' W 122°18'0 0.0 080 / 31013.4 4.8-6.1
2020-Mar-14 18:00N 47°36' W 122°18'0 0.0 030 / 31012.4 3.6-6.2
2020-Mar-14 17:00N 47°36' W 122°18'0 0.0 010 / 31011.3 3.1-4.9
2020-Mar-14 16:00N 47°36' W 122°18'0 0.0 290 / 41010.2 3.0-4.5
2020-Mar-14 15:00N 47°36' W 122°18'0 0.0 040 / 41008.7 3.1-4.1
2020-Mar-14 14:00N 47°36' W 122°18'0 0.0 020 / 41007.4 2.8-4.0
2020-Mar-14 13:00N 47°36' W 122°18'0 0.0 180 / 31006.6 3.2-3.3
2020-Mar-14 12:00N 47°36' W 122°18'0 0.0 060 / 41005.9 3.2-3.1
2020-Mar-14 11:00N 47°36' W 122°18'0 0.0 120 / 31005.3 3.3-3.0
2020-Mar-14 10:00N 47°36' W 122°18'0 0.0 130 / 31004.9 3.4-2.7
2020-Mar-14 09:00N 47°36' W 122°18'0 0.0 200 / 41004.5 3.5-2.0
2020-Mar-14 08:00N 47°36' W 122°18'0 0.0 210 / 21004.3 3.6-0.6
2020-Mar-14 07:00N 47°36' W 122°18'0 0.0 070 / 31004.3 3.5 0.4
2020-Mar-14 06:00N 47°36' W 122°18'0 0.0 150 / 31004.0 3.4 0.7
2020-Mar-14 05:00N 47°36' W 122°18'0 0.0 200 / 31003.8 3.5 1.1
2020-Mar-14 04:00N 47°36' W 122°18'0 0.0 070 / 31003.9 3.4 1.4
2020-Mar-14 03:00N 47°36' W 122°18'0 0.0 030 / 41003.9 3.3 1.6
2020-Mar-14 02:00N 47°36' W 122°18'0 0.0 010 / 41003.9 3.3 1.4
2020-Mar-14 01:00N 47°36' W 122°18'0 0.0 1004.5 3.5 1.6
2020-Mar-14 00:00N 47°36' W 122°18'0 0.0 190 / 21004.9 3.6 2.1
2020-Mar-13 23:00N 47°36' W 122°18'0 0.0 250 / 41005.2 3.9 2.2
2020-Mar-13 22:00N 47°36' W 122°18'0 0.0 290 / 31005.5 3.8 2.4
2020-Mar-13 21:00N 47°36' W 122°18'0 0.0 330 / 31006.3 4.1 2.7
2020-Mar-13 20:00N 47°36' W 122°18'0 0.0 290 / 31007.0 4.0 2.7
2020-Mar-13 19:00N 47°36' W 122°18'0 0.0 040 / 41007.8 4.2 2.7
2020-Mar-13 18:00N 47°36' W 122°18'0 0.0 050 / 21008.6 3.9 2.2
2020-Mar-13 17:00N 47°36' W 122°18'0 0.0 040 / 21009.7 3.3 1.8
2020-Mar-13 16:00N 47°36' W 122°18'0 0.0 070 / 31010.7 3.1 1.7
2020-Mar-13 15:00N 47°36' W 122°18'0 0.0 040 / 31011.8 3.2 1.6
2020-Mar-13 14:00N 47°36' W 122°18'0 0.0 060 / 11012.6 4.0 1.2
2020-Mar-13 13:00N 47°36' W 122°18'0 0.0 150 / 11013.4 4.2 0.9
2020-Mar-13 12:00N 47°36' W 122°18'0 0.0 130 / 41014.2 4.4 0.7
2020-Mar-13 11:00N 47°36' W 122°18'0 0.0 120 / 31015.6 4.8 0.7
2020-Mar-13 10:00N 47°36' W 122°18'0 0.0 130 / 41017.1 5.4 0.5
2020-Mar-13 09:00N 47°36' W 122°18'0 0.0 320 / 11018.0 6.9-0.6
2020-Mar-13 08:00N 47°36' W 122°18'0 0.0 340 / 11018.8 6.9-0.5
2020-Mar-13 07:00N 47°36' W 122°18'0 0.0 290 / 11019.7 6.7-0.9
2020-Mar-13 06:00N 47°36' W 122°18'0 0.0 050 / 31020.3 7.1-1.5
2020-Mar-13 05:00N 47°36' W 122°18'0 0.0 340 / 11020.9 7.1-0.8
2020-Mar-13 04:00N 47°36' W 122°18'0 0.0 010 / 21021.5 7.3 0.9
2020-Mar-13 03:00N 47°36' W 122°18'0 0.0 080 / 11021.8 7.3 1.8
2020-Mar-13 02:00N 47°36' W 122°18'0 0.0 350 / 21022.4 8.0 1.0
2020-Mar-13 01:00N 47°36' W 122°18'0 0.0 340 / 21023.1 9.5 0.6
2020-Mar-13 00:00N 47°36' W 122°18'0 0.0 340 / 31024.0 9.2-0.3
2020-Mar-12 23:00N 47°36' W 122°18'0 0.0 290 / 31025.0 8.8 0.7
2020-Mar-12 22:00N 47°36' W 122°18'0 0.0 290 / 21026.0 8.5 0.6
2020-Mar-12 21:00N 47°36' W 122°18'0 0.0 290 / 31027.1 8.3 2.1
2020-Mar-12 20:00N 47°36' W 122°18'0 0.0 290 / 21027.9 7.2 3.0
2020-Mar-12 19:00N 47°36' W 122°18'0 0.0 300 / 31028.1 7.7 2.4
2020-Mar-12 18:00N 47°36' W 122°18'0 0.0 140 / 11028.5 7.4 1.6
2020-Mar-12 17:00N 47°36' W 122°18'0 0.0 180 / 21028.5 5.2 3.5
2020-Mar-12 16:00N 47°36' W 122°18'0 0.0 090 / 21028.4 5.5 2.9
2020-Mar-12 15:00N 47°36' W 122°18'0 0.0 130 / 21028.3 5.4 2.5
2020-Mar-12 14:00N 47°36' W 122°18'0 0.0 230 / 21028.0 5.3 2.1
2020-Mar-12 13:00N 47°36' W 122°18'0 0.0 160 / 21028.0 5.4 2.2
2020-Mar-12 12:00N 47°36' W 122°18'0 0.0 250 1028.1 5.2 1.9
2020-Mar-12 11:00N 47°36' W 122°18'0 0.0 130 / 11027.9 5.7 1.9
2020-Mar-12 10:00N 47°36' W 122°18'0 0.0 220 / 11027.9 5.7 2.1
2020-Mar-12 09:00N 47°36' W 122°18'0 0.0 270 / 11027.9 5.7 2.5
2020-Mar-12 08:00N 47°36' W 122°18'0 0.0 340 / 21027.6 5.9 2.6
2020-Mar-12 07:00N 47°36' W 122°18'0 0.0 130 / 11027.2 6.4 1.9
2020-Mar-12 06:00N 47°36' W 122°18'0 0.0 050 / 21026.7 7.5 1.2
2020-Mar-12 05:00N 47°36' W 122°18'0 0.0 320 / 21026.4 8.0 1.0
2020-Mar-12 04:00N 47°36' W 122°18'0 0.0 020 / 21025.7 8.1 1.3
2020-Mar-12 03:00N 47°36' W 122°18'0 0.0 360 / 11025.0 9.2-1.2
2020-Mar-12 02:00N 47°36' W 122°18'0 0.0 320 / 21024.6 9.2 0.3
2020-Mar-12 01:00N 47°36' W 122°18'0 0.0 310 / 61024.6 9.4-1.6
2020-Mar-12 00:00N 47°36' W 122°18'0 0.0 290 / 41024.6 9.3-1.3
2020-Mar-11 23:00N 47°36' W 122°18'0 0.0 320 / 31024.3 10.2-1.0
2020-Mar-11 22:00N 47°36' W 122°18'0 0.0 290 / 31024.2 9.4-1.8
2020-Mar-11 21:00N 47°36' W 122°18'0 0.0 270 / 41024.2 8.1-1.7
2020-Mar-11 20:00N 47°36' W 122°18'0 0.0 250 / 31024.2 6.8 2.4
2020-Mar-11 19:00N 47°36' W 122°18'0 0.0 160 / 31023.8 9.0 1.2
2020-Mar-11 18:00N 47°36' W 122°18'0 0.0 160 / 21023.0 9.3 0.7
2020-Mar-11 17:00N 47°36' W 122°18'   080 / 21022.3 8.5 3.1

Dump ship's entire track history